Главная страница
METAR-TAF:

METAR-TAF

Аэропорты :

Согндал, Норвегия

широта: 61-09N, долгота: 007-08E, высота над уровнем моря: 49 м

Текущие метеонаблюдения

Эта сводка был подготовлена 46 минут назад, в 15:50 UTC
Ветер 5 Узел от западный-юго-западный, изменяющийся между южный-юго-западный и западно-северо-западный
Температура 17°C
Влажность 59%
Давление 1009 hPa
Видимость 10 км и более
небольшой дождь

METAR: ENSG 221550Z AUTO 24005KT 210V290 9999 -RA OVC061/// 17/09 Q1009 RMK WIND 3806FT VRB07KT

Время: 18:36 (16:36 UTC)

Прогноз

Эта сводка был подготовлена 8 часа и 36 минут назад, в 08:00 UTC
Прогноз действительный с 22-го 09 UTC до 22-го 15 UTC
Ветер 3 Узел переменных направлений
Видимость 10 км и более
Нет облачности ниже 1500 м, и нет кучево-дождевой облачности

TAF: ENSG 220800Z 2209/2215 VRB03KT CAVOK

Метеонаблюдения и прогнозы для более 4000 аэропортов (сводки METAR и TAF).

Имеющиеся станции представлены на карте желтыми и красными точками.

Чтобы увидеть название станции, наведите на нее мышь.

Затем щелкните, чтобы увидеть метеонаблюдения и метеопрогнозы.

Управление картой: чтобы увеличить масштаб, щелкните зеленые кнопки с черным крестиком; чтобы уменьшить масштаб, щелкните зеленую кнопку с тире; для просмотра соседних карт щелкайте зеленые стрелки.


METAR-TAF: